WZZ84AY EDDK-EDLW
Flight info
| Callsign | WZZ84AY |
|---|---|
| Flight time | 0h 18m |
| Altitude | 7000 |
| Route | WIPU1F WIPUR DCT DOMUX DCT ADEMI |
| Aircraft | A320/M-SDE3FGHIRWY/LB1 |
Departure
| Time | 2026-04-25 07:19 |
|---|---|
| Airport | Cologne Bonn Airport (EDDK) |
Arrival
| Time | 2026-04-25 07:38 |
|---|---|
| Airport | Dortmund Airport (EDLW) |
| Time | Latitude | Longitude | Altitude | Speed | Heading |
|---|---|---|---|---|---|
| 2026-04-25 06:50 | 50.88374 | 7.11974 | 230 ft | 0 kts | 37° |
| 2026-04-25 07:12 | 50.88362 | 7.11960 | 231 ft | 4 kts | 34° |
| 2026-04-25 07:13 | 50.88339 | 7.11937 | 230 ft | 4 kts | 30° |
| 2026-04-25 07:13 | 50.88316 | 7.11915 | 233 ft | 4 kts | 36° |
| 2026-04-25 07:13 | 50.88300 | 7.11890 | 230 ft | 4 kts | 91° |
| 2026-04-25 07:13 | 50.88300 | 7.11881 | 230 ft | 0 kts | 126° |
| 2026-04-25 07:15 | 50.88298 | 7.11886 | 230 ft | 2 kts | 127° |
| 2026-04-25 07:16 | 50.88278 | 7.11927 | 231 ft | 7 kts | 127° |
| 2026-04-25 07:16 | 50.88240 | 7.12011 | 230 ft | 12 kts | 126° |
| 2026-04-25 07:16 | 50.88184 | 7.12134 | 230 ft | 15 kts | 126° |
| 2026-04-25 07:16 | 50.88121 | 7.12273 | 230 ft | 17 kts | 126° |
| 2026-04-25 07:17 | 50.88072 | 7.12378 | 230 ft | 7 kts | 126° |
| 2026-04-25 07:17 | 50.88042 | 7.12460 | 230 ft | 10 kts | 119° |
| 2026-04-25 07:17 | 50.88001 | 7.12567 | 230 ft | 11 kts | 127° |
| 2026-04-25 07:17 | 50.87981 | 7.12679 | 232 ft | 12 kts | 74° |
| 2026-04-25 07:18 | 50.88003 | 7.12798 | 235 ft | 11 kts | 78° |
| 2026-04-25 07:18 | 50.88005 | 7.12919 | 238 ft | 12 kts | 97° |
| 2026-04-25 07:18 | 50.87963 | 7.13028 | 240 ft | 12 kts | 137° |
| 2026-04-25 07:18 | 50.87841 | 7.13205 | 244 ft | 52 kts | 137° |
| 2026-04-25 07:19 | 50.87404 | 7.13840 | 247 ft | 116 kts | 137° |
| 2026-04-25 07:19 | 50.86687 | 7.14877 | 270 ft | 162 kts | 137° |
| 2026-04-25 07:19 | 50.85869 | 7.16062 | 883 ft | 161 kts | 137° |
| 2026-04-25 07:19 | 50.85007 | 7.17279 | 1439 ft | 172 kts | 139° |
| 2026-04-25 07:20 | 50.84053 | 7.18613 | 1727 ft | 194 kts | 139° |
| 2026-04-25 07:20 | 50.82979 | 7.20112 | 1966 ft | 218 kts | 139° |
| 2026-04-25 07:20 | 50.81951 | 7.21939 | 2491 ft | 231 kts | 118° |
| 2026-04-25 07:20 | 50.81317 | 7.24307 | 3294 ft | 233 kts | 97° |
| 2026-04-25 07:21 | 50.81150 | 7.26863 | 4129 ft | 235 kts | 93° |
| 2026-04-25 07:21 | 50.80977 | 7.29457 | 4976 ft | 241 kts | 92° |
| 2026-04-25 07:21 | 50.81153 | 7.32152 | 5393 ft | 261 kts | 68° |
| 2026-04-25 07:21 | 50.82186 | 7.34530 | 6038 ft | 268 kts | 37° |
| 2026-04-25 07:22 | 50.83868 | 7.35760 | 6800 ft | 271 kts | 7° |
| 2026-04-25 07:22 | 50.85730 | 7.35562 | 7093 ft | 270 kts | 345° |
| 2026-04-25 07:22 | 50.87555 | 7.34859 | 7174 ft | 269 kts | 344° |
| 2026-04-25 07:22 | 50.89392 | 7.34266 | 7221 ft | 272 kts | 356° |
| 2026-04-25 07:23 | 50.91283 | 7.34686 | 8005 ft | 277 kts | 11° |
| 2026-04-25 07:23 | 50.93167 | 7.35361 | 8905 ft | 279 kts | 10° |
| 2026-04-25 07:23 | 50.95072 | 7.36048 | 9763 ft | 282 kts | 10° |
| 2026-04-25 07:23 | 50.97002 | 7.36753 | 10556 ft | 286 kts | 10° |
| 2026-04-25 07:24 | 50.98957 | 7.37475 | 11022 ft | 290 kts | 10° |
| 2026-04-25 07:24 | 51.00923 | 7.38205 | 11156 ft | 290 kts | 10° |
| 2026-04-25 07:24 | 51.02863 | 7.38926 | 11185 ft | 290 kts | 10° |
| 2026-04-25 07:24 | 51.04824 | 7.39659 | 11188 ft | 289 kts | 10° |
| 2026-04-25 07:25 | 51.06787 | 7.40395 | 11187 ft | 289 kts | 10° |
| 2026-04-25 07:25 | 51.08749 | 7.41132 | 11186 ft | 289 kts | 10° |
| 2026-04-25 07:25 | 51.10708 | 7.41866 | 11187 ft | 290 kts | 10° |
| 2026-04-25 07:25 | 51.12674 | 7.42600 | 11186 ft | 290 kts | 10° |
| 2026-04-25 07:26 | 51.14634 | 7.43330 | 11185 ft | 290 kts | 10° |
| 2026-04-25 07:26 | 51.16599 | 7.44064 | 11185 ft | 290 kts | 10° |
| 2026-04-25 07:26 | 51.18562 | 7.44802 | 11184 ft | 290 kts | 10° |
| 2026-04-25 07:26 | 51.20528 | 7.45540 | 11185 ft | 290 kts | 10° |
| 2026-04-25 07:27 | 51.22489 | 7.46280 | 11186 ft | 290 kts | 10° |
| 2026-04-25 07:27 | 51.24451 | 7.47022 | 11185 ft | 290 kts | 10° |
| 2026-04-25 07:27 | 51.26411 | 7.47760 | 11185 ft | 290 kts | 10° |
| 2026-04-25 07:27 | 51.28360 | 7.48492 | 10888 ft | 292 kts | 10° |
| 2026-04-25 07:28 | 51.30339 | 7.49237 | 10523 ft | 292 kts | 10° |
| 2026-04-25 07:28 | 51.32316 | 7.49983 | 10163 ft | 292 kts | 11° |
| 2026-04-25 07:28 | 51.34290 | 7.50729 | 9786 ft | 291 kts | 11° |
| 2026-04-25 07:28 | 51.36252 | 7.51470 | 9389 ft | 286 kts | 11° |
| 2026-04-25 07:29 | 51.38171 | 7.52197 | 9062 ft | 281 kts | 11° |
| 2026-04-25 07:29 | 51.40000 | 7.53266 | 8770 ft | 281 kts | 27° |
| 2026-04-25 07:29 | 51.41543 | 7.55175 | 8466 ft | 283 kts | 45° |
| 2026-04-25 07:29 | 51.42660 | 7.57785 | 8145 ft | 285 kts | 61° |
| 2026-04-25 07:30 | 51.43504 | 7.60650 | 7816 ft | 284 kts | 63° |
| 2026-04-25 07:30 | 51.44310 | 7.63530 | 7513 ft | 282 kts | 64° |
| 2026-04-25 07:30 | 51.45110 | 7.66404 | 7213 ft | 281 kts | 64° |
| 2026-04-25 07:30 | 51.45902 | 7.69256 | 6915 ft | 279 kts | 64° |
| 2026-04-25 07:31 | 51.46689 | 7.72096 | 6616 ft | 278 kts | 64° |
| 2026-04-25 07:31 | 51.47468 | 7.74926 | 6303 ft | 277 kts | 64° |
| 2026-04-25 07:31 | 51.48242 | 7.77744 | 5988 ft | 275 kts | 63° |
| 2026-04-25 07:31 | 51.48997 | 7.80511 | 5692 ft | 273 kts | 63° |
| 2026-04-25 07:32 | 51.49884 | 7.83178 | 5385 ft | 268 kts | 49° |
| 2026-04-25 07:32 | 51.51100 | 7.85413 | 5071 ft | 265 kts | 44° |
| 2026-04-25 07:32 | 51.52362 | 7.87574 | 4757 ft | 264 kts | 44° |
| 2026-04-25 07:32 | 51.53620 | 7.89720 | 4463 ft | 263 kts | 44° |
| 2026-04-25 07:33 | 51.54908 | 7.91771 | 4169 ft | 259 kts | 33° |
| 2026-04-25 07:33 | 51.56502 | 7.92881 | 3970 ft | 246 kts | 5° |
| 2026-04-25 07:33 | 51.58149 | 7.92630 | 3799 ft | 235 kts | 338° |
| 2026-04-25 07:33 | 51.59467 | 7.91208 | 3626 ft | 226 kts | 311° |
| 2026-04-25 07:34 | 51.60205 | 7.89036 | 3449 ft | 221 kts | 285° |
| 2026-04-25 07:34 | 51.60259 | 7.86607 | 3267 ft | 217 kts | 261° |
| 2026-04-25 07:34 | 51.59783 | 7.84332 | 3102 ft | 212 kts | 250° |
| 2026-04-25 07:34 | 51.59166 | 7.82247 | 3008 ft | 201 kts | 245° |
| 2026-04-25 07:35 | 51.58505 | 7.80292 | 2949 ft | 197 kts | 244° |
| 2026-04-25 07:35 | 51.57842 | 7.78383 | 2744 ft | 195 kts | 244° |
| 2026-04-25 07:35 | 51.57182 | 7.76492 | 2502 ft | 192 kts | 244° |
| 2026-04-25 07:35 | 51.56546 | 7.74672 | 2253 ft | 185 kts | 243° |
| 2026-04-25 07:36 | 51.55927 | 7.72904 | 1983 ft | 176 kts | 242° |
| 2026-04-25 07:36 | 51.55354 | 7.71267 | 1760 ft | 159 kts | 242° |
| 2026-04-25 07:36 | 51.54841 | 7.69802 | 1525 ft | 145 kts | 242° |
| 2026-04-25 07:36 | 51.54355 | 7.68412 | 1321 ft | 141 kts | 242° |
| 2026-04-25 07:37 | 51.53878 | 7.67053 | 1116 ft | 139 kts | 241° |
| 2026-04-25 07:37 | 51.53406 | 7.65707 | 935 ft | 138 kts | 242° |
| 2026-04-25 07:37 | 51.52934 | 7.64360 | 743 ft | 138 kts | 242° |
| 2026-04-25 07:37 | 51.52463 | 7.63019 | 567 ft | 138 kts | 242° |
| 2026-04-25 07:38 | 51.51997 | 7.61691 | 410 ft | 129 kts | 241° |
| 2026-04-25 07:38 | 51.51686 | 7.60814 | 419 ft | 44 kts | 240° |
| 2026-04-25 07:38 | 51.51574 | 7.60493 | 415 ft | 28 kts | 240° |
| 2026-04-25 07:38 | 51.51500 | 7.60281 | 418 ft | 9 kts | 241° |
| 2026-04-25 07:39 | 51.51448 | 7.60239 | 420 ft | 8 kts | 171° |
| 2026-04-25 07:39 | 51.51402 | 7.60272 | 415 ft | 7 kts | 148° |
| 2026-04-25 07:39 | 51.51364 | 7.60330 | 422 ft | 8 kts | 119° |
| 2026-04-25 07:39 | 51.51375 | 7.60433 | 424 ft | 12 kts | 62° |
| 2026-04-25 07:40 | 51.51421 | 7.60566 | 418 ft | 15 kts | 60° |
| 2026-04-25 07:40 | 51.51480 | 7.60734 | 419 ft | 19 kts | 60° |
| 2026-04-25 07:40 | 51.51546 | 7.60921 | 426 ft | 14 kts | 61° |
| 2026-04-25 07:40 | 51.51571 | 7.61016 | 423 ft | 7 kts | 88° |
| 2026-04-25 07:41 | 51.51539 | 7.61054 | 427 ft | 4 kts | 167° |
| 2026-04-25 07:41 | 51.51518 | 7.61051 | 429 ft | 2 kts | 194° |
| 2026-04-25 07:41 | 51.51504 | 7.61036 | 427 ft | 3 kts | 222° |
| 2026-04-25 07:41 | 51.51484 | 7.60979 | 433 ft | 8 kts | 241° |
| 2026-04-25 07:42 | 51.51440 | 7.60970 | 425 ft | 6 kts | 149° |
| 2026-04-25 07:42 | 51.51417 | 7.60997 | 430 ft | 2 kts | 144° |
| 2026-04-25 07:42 | 51.51413 | 7.61002 | 431 ft | 0 kts | 144° |